Time;durP1;ratioP1;P1;durP2;ratioP2;P2;SDS_P1;SDS_P2;PMS_P1;PMS_P2;Temp;Humidity;BMP_temperature;BMP_pressure;BME280_temperature;BME280_humidity;BME280_pressure;Samples;Min_cycle;Max_cycle;Signal;HPM_P1;HPM_P2
2022/05/28 00:01:28;;;;;;;6.23;2.20;;;11.90;99.90;;;;;;5065808;28;20215;-38
2022/05/28 00:03:57;;;;;;;6.37;2.20;;;11.80;99.90;;;;;;5072473;28;20428;-37
2022/05/28 00:06:24;;;;;;;4.93;2.13;;;11.80;99.90;;;;;;5065965;28;20194;-37
2022/05/28 00:08:50;;;;;;;6.03;2.47;;;11.70;99.90;;;;;;5056243;28;20424;-37
2022/05/28 00:11:18;;;;;;;3.50;2.17;;;11.50;99.90;;;;;;5055439;28;20489;-38
2022/05/28 00:13:44;;;;;;;7.00;2.67;;;11.50;99.90;;;;;;5072505;28;20443;-37
2022/05/28 00:16:11;;;;;;;6.73;2.30;;;11.50;99.90;;;;;;5062879;28;20502;-37
2022/05/28 00:18:38;;;;;;;5.83;2.13;;;11.40;99.90;;;;;;5071256;28;20427;-37
2022/05/28 00:21:04;;;;;;;7.57;2.40;;;11.40;99.90;;;;;;5068641;28;20472;-37
2022/05/28 00:23:30;;;;;;;7.07;2.00;;;11.40;99.90;;;;;;5054296;28;20450;-37
2022/05/28 00:25:55;;;;;;;7.77;2.90;;;11.30;99.90;;;;;;5052464;28;20194;-37
2022/05/28 00:28:21;;;;;;;5.77;2.33;;;11.20;99.90;;;;;;5059248;28;20192;-37
2022/05/28 00:30:47;;;;;;;8.90;2.97;;;11.20;99.90;;;;;;5060073;28;20189;-37
2022/05/28 00:33:13;;;;;;;5.13;2.43;;;11.30;99.90;;;;;;5071955;28;20201;-37
2022/05/28 00:35:40;;;;;;;5.33;2.10;;;11.30;99.90;;;;;;5072112;28;20423;-37
2022/05/28 00:38:06;;;;;;;5.77;2.43;;;11.50;99.90;;;;;;5052605;28;20443;-37
2022/05/28 00:40:31;;;;;;;11.20;2.73;;;11.50;99.90;;;;;;5055565;28;20469;-37
2022/05/28 00:42:59;;;;;;;11.93;3.50;;;11.60;99.90;;;;;;5072088;28;20489;-37
2022/05/28 00:45:25;;;;;;;4.83;2.93;;;11.60;99.90;;;;;;5064132;28;20244;-37
2022/05/28 00:47:55;;;;;;;6.30;2.20;;;11.70;99.90;;;;;;5071075;28;20463;-37
2022/05/28 00:50:21;;;;;;;7.60;2.40;;;11.80;99.90;;;;;;5071576;28;20227;-37
2022/05/28 00:52:47;;;;;;;7.97;2.43;;;11.70;99.90;;;;;;5057709;28;20467;-38
2022/05/28 00:55:14;;;;;;;7.10;2.40;;;11.70;99.90;;;;;;5058465;28;20431;-37
2022/05/28 00:57:41;;;;;;;4.37;2.50;;;11.70;99.90;;;;;;5059262;28;20859;-37
2022/05/28 01:00:14;;;;;;;11.53;2.40;;;11.60;99.90;;;;;;5067428;28;20460;-38
2022/05/28 01:02:58;;;;;;;10.23;3.10;;;11.60;99.90;;;;;;5071878;28;20473;-37
2022/05/28 01:05:56;;;;;;;5.13;2.40;;;11.60;99.90;;;;;;5071356;28;20447;-37
2022/05/28 01:08:37;;;;;;;6.57;2.90;;;11.70;99.90;;;;;;5052500;28;20487;-37
2022/05/28 01:11:33;;;;;;;6.90;2.67;;;11.50;99.90;;;;;;5055636;28;20450;-37
2022/05/28 01:14:10;;;;;;;4.50;2.20;;;11.50;99.90;;;;;;5070229;28;20496;-38
2022/05/28 01:16:41;;;;;;;5.13;2.80;;;11.40;99.90;;;;;;5057473;28;20510;-37
2022/05/28 01:19:34;;;;;;;6.40;2.30;;;11.30;99.90;;;;;;5070949;28;20415;-37
2022/05/28 01:22:13;;;;;;;8.10;3.00;;;11.50;99.90;;;;;;5062871;28;20440;-38
2022/05/28 01:25:12;;;;;;;9.70;2.60;;;11.50;99.90;;;;;;5059821;28;20422;-37
2022/05/28 01:27:45;;;;;;;8.53;2.70;;;11.30;99.90;;;;;;5052137;28;20837;-37
2022/05/28 01:30:13;;;;;;;5.40;2.40;;;11.10;99.90;;;;;;5067271;28;20531;-37
2022/05/28 01:32:41;;;;;;;5.70;2.63;;;11.10;99.90;;;;;;5067349;28;20419;-37
2022/05/28 01:35:10;;;;;;;8.00;2.47;;;11.20;99.90;;;;;;5071062;28;20415;-37
2022/05/28 01:37:37;;;;;;;6.77;2.80;;;11.20;99.90;;;;;;5059003;28;20428;-37
2022/05/28 01:40:07;;;;;;;6.13;2.50;;;11.20;99.90;;;;;;5054445;28;20506;-37
2022/05/28 01:42:34;;;;;;;9.03;3.00;;;11.20;99.90;;;;;;5056198;28;20427;-37
2022/05/28 01:45:01;;;;;;;7.47;2.67;;;11.20;99.90;;;;;;5068842;28;20522;-37
2022/05/28 01:47:28;;;;;;;7.40;2.70;;;11.30;99.90;;;;;;5068098;28;20427;-37
2022/05/28 01:49:54;;;;;;;9.63;2.43;;;11.30;99.90;;;;;;5070773;28;20765;-37
2022/05/28 01:52:21;;;;;;;5.27;2.27;;;11.20;99.90;;;;;;5062519;28;20450;-37
2022/05/28 01:54:49;;;;;;;4.57;2.60;;;11.20;99.90;;;;;;5051166;28;20456;-37
2022/05/28 01:57:15;;;;;;;10.53;2.83;;;11.10;99.90;;;;;;5057141;28;20450;-38
2022/05/28 01:59:43;;;;;;;10.47;3.10;;;11.10;99.90;;;;;;5070493;28;20465;-37
2022/05/28 02:02:12;;;;;;;6.60;2.77;;;10.50;99.90;;;;;;5057844;28;20419;-37
2022/05/28 02:04:39;;;;;;;9.47;2.93;;;11.00;99.90;;;;;;5070438;28;20771;-37
2022/05/28 02:07:05;;;;;;;4.97;2.80;;;11.00;99.90;;;;;;5064033;28;20440;-38
2022/05/28 02:09:49;;;;;;;7.10;2.27;;;11.00;99.90;;;;;;5052188;28;20511;-37
2022/05/28 02:12:30;;;;;;;3.70;2.40;;;10.90;99.90;;;;;;5056022;28;20827;-37
2022/05/28 02:15:09;;;;;;;4.20;2.17;;;11.00;99.90;;;;;;5070062;28;20419;-37
2022/05/28 02:17:45;;;;;;;8.50;2.60;;;11.10;99.90;;;;;;5062252;28;20422;-37
2022/05/28 02:20:40;;;;;;;4.90;2.50;;;11.20;99.90;;;;;;5070019;28;20455;-38
2022/05/28 02:23:11;;;;;;;3.83;1.90;;;11.20;99.90;;;;;;5055571;28;21022;-37
2022/05/28 02:26:03;;;;;;;10.30;2.80;;;11.00;99.90;;;;;;5050280;28;20405;-37
2022/05/28 02:28:31;;;;;;;5.97;2.73;;;10.90;99.90;;;;;;5046513;28;20411;-38
2022/05/28 02:31:02;;;;;;;6.40;2.50;;;10.90;99.90;;;;;;5065104;28;20479;-37
2022/05/28 02:33:32;;;;;;;7.23;3.43;;;10.90;99.90;;;;;;5069866;28;20419;-37
2022/05/28 02:35:59;;;;;;;9.50;2.70;;;10.90;99.90;;;;;;5069405;28;20480;-38
2022/05/28 02:38:25;;;;;;;10.40;2.93;;;10.90;99.90;;;;;;5053773;28;20443;-37
2022/05/28 02:40:54;;;;;;;6.40;2.87;;;11.00;99.90;;;;;;5056692;28;20475;-38
2022/05/28 02:43:21;;;;;;;4.10;2.30;;;11.10;99.90;;;;;;5060475;28;20427;-37
2022/05/28 02:45:47;;;;;;;6.07;2.27;;;11.10;99.90;;;;;;5068585;28;20933;-37
2022/05/28 02:48:13;;;;;;;7.73;2.80;;;11.10;99.90;;;;;;5068795;28;20439;-37
2022/05/28 02:50:39;;;;;;;5.37;2.67;;;11.30;99.90;;;;;;5067673;28;20192;-38
2022/05/28 02:53:06;;;;;;;10.53;2.90;;;11.10;99.90;;;;;;5056646;28;20220;-38
2022/05/28 02:55:32;;;;;;;9.87;2.40;;;11.10;99.90;;;;;;5054810;28;20431;-38
2022/05/28 02:57:58;;;;;;;5.97;2.73;;;11.10;99.90;;;;;;5059784;28;20441;-37
2022/05/28 03:00:23;;;;;;;9.37;2.77;;;10.90;99.90;;;;;;5067862;28;20981;-38
2022/05/28 03:02:49;;;;;;;6.63;2.43;;;11.00;99.90;;;;;;5060702;28;20432;-37
2022/05/28 03:05:19;;;;;;;5.83;2.93;;;11.00;99.90;;;;;;5068895;28;20262;-38
2022/05/28 03:07:44;;;;;;;12.13;3.07;;;11.00;99.90;;;;;;5060051;28;20436;-38
2022/05/28 03:10:11;;;;;;;8.40;2.37;;;10.90;99.90;;;;;;5055824;28;20528;-37
2022/05/28 03:12:38;;;;;;;6.77;3.20;;;11.30;99.90;;;;;;5061330;28;20541;-37
2022/05/28 03:15:05;;;;;;;7.80;2.80;;;11.10;99.90;;;;;;5069258;28;20419;-37
2022/05/28 03:17:30;;;;;;;8.40;3.70;;;11.10;99.90;;;;;;5062093;28;20758;-38
2022/05/28 03:19:59;;;;;;;4.07;2.70;;;11.40;99.90;;;;;;5068791;28;20474;-38
2022/05/28 03:22:25;;;;;;;9.13;3.40;;;11.30;99.90;;;;;;5064683;28;20193;-37
2022/05/28 03:24:50;;;;;;;5.70;2.90;;;11.30;99.90;;;;;;5052780;28;20511;-37
2022/05/28 03:27:16;;;;;;;7.23;3.23;;;11.50;99.90;;;;;;5048348;28;20504;-37
2022/05/28 03:29:41;;;;;;;4.87;2.63;;;11.30;99.90;;;;;;5068020;28;20201;-37
2022/05/28 03:32:07;;;;;;;8.90;3.23;;;11.40;99.90;;;;;;5067524;28;20288;-37
2022/05/28 03:34:33;;;;;;;11.37;3.67;;;11.30;99.90;;;;;;5067957;28;20205;-37
2022/05/28 03:36:59;;;;;;;10.63;3.10;;;11.40;99.90;;;;;;5068532;28;20200;-37
2022/05/28 03:39:24;;;;;;;11.43;3.20;;;11.50;99.90;;;;;;5052329;28;20493;-38
2022/05/28 03:41:50;;;;;;;7.30;3.10;;;11.40;99.90;;;;;;5056613;28;20188;-38
2022/05/28 03:44:16;;;;;;;6.50;3.20;;;11.40;99.90;;;;;;5067994;28;20193;-37
2022/05/28 03:46:42;;;;;;;10.80;4.07;;;11.30;99.90;;;;;;5058850;28;20572;-37
2022/05/28 03:49:15;;;;;;;6.27;3.20;;;11.40;99.90;;;;;;5067832;28;20199;-38
2022/05/28 03:51:40;;;;;;;11.37;3.40;;;11.40;99.90;;;;;;5068739;28;20515;-38
2022/05/28 03:54:06;;;;;;;5.33;2.93;;;11.10;99.90;;;;;;5057614;28;20879;-37
2022/05/28 03:56:38;;;;;;;6.07;3.40;;;11.40;99.90;;;;;;5051584;28;20214;-37
2022/05/28 03:59:05;;;;;;;4.80;3.00;;;11.50;99.90;;;;;;5067346;28;20215;-38
2022/05/28 04:01:31;;;;;;;10.30;3.67;;;11.40;99.90;;;;;;5062987;28;20456;-37
2022/05/28 04:03:57;;;;;;;10.03;3.50;;;11.50;99.90;;;;;;5068723;28;20498;-38
2022/05/28 04:06:23;;;;;;;10.60;3.47;;;11.60;99.90;;;;;;5068847;28;20510;-38
2022/05/28 04:08:48;;;;;;;6.80;3.43;;;11.50;99.90;;;;;;5057190;28;20271;-37
2022/05/28 04:11:14;;;;;;;4.67;3.07;;;11.50;99.90;;;;;;5053441;28;20190;-38
2022/05/28 04:13:40;;;;;;;9.60;3.80;;;11.50;99.90;;;;;;5055709;28;20193;-38
2022/05/28 04:16:06;;;;;;;8.40;3.90;;;11.60;99.90;;;;;;5062497;28;20659;-37
2022/05/28 04:18:32;;;;;;;8.30;3.20;;;11.60;99.90;;;;;;5067891;28;20200;-38
2022/05/28 04:20:57;;;;;;;7.67;4.40;;;11.60;99.90;;;;;;5068534;28;20463;-37
2022/05/28 04:23:23;;;;;;;11.33;4.00;;;11.60;99.90;;;;;;5059544;28;20692;-37
2022/05/28 04:25:48;;;;;;;7.60;3.70;;;11.70;99.90;;;;;;5048680;28;20220;-38
2022/05/28 04:28:14;;;;;;;8.03;3.10;;;11.70;99.90;;;;;;5054425;28;20234;-37
2022/05/28 04:30:40;;;;;;;8.00;3.33;;;11.80;99.90;;;;;;5068264;28;20269;-38
2022/05/28 04:33:06;;;;;;;9.23;3.40;;;11.90;99.90;;;;;;5056428;28;20184;-38
2022/05/28 04:35:32;;;;;;;9.27;3.00;;;11.90;99.90;;;;;;5068363;28;20202;-37
2022/05/28 04:37:57;;;;;;;6.03;3.73;;;11.90;99.90;;;;;;5062323;28;20182;-38
2022/05/28 04:40:23;;;;;;;8.93;3.83;;;11.90;99.90;;;;;;5051250;28;20525;-38
2022/05/28 04:42:49;;;;;;;5.10;2.87;;;12.00;99.90;;;;;;5060987;28;20181;-38
2022/05/28 04:45:15;;;;;;;6.17;3.20;;;12.00;99.90;;;;;;5068113;28;20181;-38
2022/05/28 04:47:40;;;;;;;8.67;3.67;;;12.10;99.90;;;;;;5062981;28;20243;-38
2022/05/28 04:50:07;;;;;;;6.30;3.00;;;12.30;99.90;;;;;;5071736;28;20224;-38
2022/05/28 04:52:33;;;;;;;11.97;3.80;;;12.30;99.90;;;;;;5071789;28;20430;-38
2022/05/28 04:54:58;;;;;;;12.27;3.80;;;12.30;99.90;;;;;;5051075;28;20795;-38
2022/05/28 04:57:24;;;;;;;7.70;3.47;;;12.10;99.90;;;;;;5053526;28;20202;-38
2022/05/28 04:59:50;;;;;;;3.93;3.03;;;12.10;99.90;;;;;;5063950;28;20273;-38
2022/05/28 05:02:16;;;;;;;9.07;3.37;;;12.10;99.90;;;;;;5068152;28;20430;-38
2022/05/28 05:04:42;;;;;;;6.80;3.60;;;12.10;99.90;;;;;;5071593;28;20268;-38
2022/05/28 05:07:07;;;;;;;9.40;3.77;;;12.20;99.90;;;;;;5070904;28;20185;-38
2022/05/28 05:09:33;;;;;;;7.30;3.70;;;12.30;99.90;;;;;;5056453;28;20451;-38
2022/05/28 05:11:59;;;;;;;11.97;3.50;;;12.50;99.90;;;;;;5057885;28;20181;-38
2022/05/28 05:14:25;;;;;;;6.93;3.13;;;12.50;99.90;;;;;;5063899;28;20188;-38
2022/05/28 05:16:51;;;;;;;7.03;3.60;;;12.60;99.90;;;;;;5058317;28;20782;-38
2022/05/28 05:19:16;;;;;;;9.40;3.17;;;12.60;99.90;;;;;;5063729;28;20426;-37
2022/05/28 05:21:42;;;;;;;11.53;4.10;;;12.50;99.90;;;;;;5071044;28;20216;-38
2022/05/28 05:24:08;;;;;;;5.27;3.47;;;12.60;99.90;;;;;;5059125;28;20526;-38
2022/05/28 05:26:33;;;;;;;8.03;3.93;;;12.50;99.90;;;;;;5055007;28;20190;-38
2022/05/28 05:28:59;;;;;;;5.80;3.13;;;12.60;99.90;;;;;;5063736;28;20188;-38
2022/05/28 05:31:25;;;;;;;4.60;2.90;;;12.60;99.90;;;;;;5069633;28;20181;-38
2022/05/28 05:33:51;;;;;;;9.47;3.77;;;12.50;99.90;;;;;;5064185;28;20185;-38
2022/05/28 05:36:17;;;;;;;5.17;2.70;;;12.50;99.90;;;;;;5070695;28;20193;-38
2022/05/28 05:38:42;;;;;;;9.00;3.30;;;12.50;99.90;;;;;;5062378;28;20436;-38
2022/05/28 05:41:08;;;;;;;10.00;3.07;;;12.50;99.90;;;;;;5057922;28;20209;-38
2022/05/28 05:43:34;;;;;;;3.40;2.07;;;12.50;99.90;;;;;;5051989;28;20190;-38
2022/05/28 05:46:01;;;;;;;9.10;3.60;;;12.40;99.90;;;;;;5070583;28;20449;-38
2022/05/28 05:48:28;;;;;;;10.43;2.87;;;12.60;99.90;;;;;;5065826;28;20227;-38
2022/05/28 05:50:54;;;;;;;6.50;3.10;;;12.80;99.90;;;;;;5044207;28;20435;-38
2022/05/28 05:53:20;;;;;;;9.33;4.90;;;13.00;99.90;;;;;;5064717;28;20440;-38
2022/05/28 05:55:46;;;;;;;4.70;2.53;;;12.90;99.90;;;;;;5050368;28;20196;-38
2022/05/28 05:58:12;;;;;;;8.00;3.30;;;12.90;99.90;;;;;;5053733;28;20250;-37
2022/05/28 06:00:39;;;;;;;4.00;2.33;;;13.10;99.90;;;;;;5070616;28;20459;-38
2022/05/28 06:03:05;;;;;;;8.13;2.53;;;13.50;99.90;;;;;;5069801;28;20419;-38
2022/05/28 06:05:31;;;;;;;6.00;2.30;;;13.90;99.90;;;;;;5070425;28;20522;-38
2022/05/28 06:07:57;;;;;;;8.00;2.50;;;14.10;99.90;;;;;;5069485;28;20515;-38
2022/05/28 06:10:23;;;;;;;8.33;2.60;;;14.20;99.90;;;;;;5054383;28;20189;-38
2022/05/28 06:12:49;;;;;;;8.03;2.23;;;14.30;99.90;;;;;;5050530;28;20246;-38
2022/05/28 06:15:14;;;;;;;7.40;2.77;;;14.10;99.90;;;;;;5070277;28;20423;-38
2022/05/28 06:17:40;;;;;;;6.83;2.80;;;13.70;99.90;;;;;;5054011;28;20197;-38
2022/05/28 06:20:10;;;;;;;5.17;2.83;;;13.60;99.90;;;;;;5070195;28;20219;-38
2022/05/28 06:22:36;;;;;;;4.23;2.13;;;13.60;99.90;;;;;;5069990;28;20438;-38
2022/05/28 06:25:01;;;;;;;2.83;1.93;;;13.60;99.90;;;;;;5053165;28;20424;-38
2022/05/28 06:27:27;;;;;;;6.87;2.83;;;13.90;99.90;;;;;;5049260;28;20755;-38
2022/05/28 06:29:53;;;;;;;7.47;2.07;;;14.00;99.90;;;;;;5069798;28;20419;-38
2022/05/28 06:32:19;;;;;;;5.80;2.23;;;13.90;99.90;;;;;;5062510;28;20200;-38
2022/05/28 06:34:45;;;;;;;8.97;2.33;;;13.80;99.90;;;;;;5069743;28;20200;-38
2022/05/28 06:37:12;;;;;;;5.10;2.60;;;13.70;99.90;;;;;;5069211;28;20411;-38
2022/05/28 06:39:38;;;;;;;7.30;1.90;;;13.70;99.90;;;;;;5056763;28;20227;-38
2022/05/28 06:42:05;;;;;;;6.03;1.60;;;13.60;99.90;;;;;;5056720;28;20873;-38
2022/05/28 06:44:31;;;;;;;3.20;1.70;;;13.60;99.90;;;;;;5057937;28;20524;-38
2022/05/28 06:46:56;;;;;;;4.63;3.30;;;13.50;99.90;;;;;;5068312;28;20464;-38
2022/05/28 06:49:22;;;;;;;4.50;1.90;;;13.60;99.90;;;;;;5069585;28;20185;-38
2022/05/28 06:51:50;;;;;;;5.00;1.90;;;13.50;99.90;;;;;;5069586;28;20558;-38
2022/05/28 06:54:16;;;;;;;2.77;1.40;;;13.70;99.90;;;;;;5059643;28;20190;-38
2022/05/28 06:56:41;;;;;;;7.80;2.53;;;14.10;99.90;;;;;;5050981;28;20444;-38
2022/05/28 06:59:07;;;;;;;3.17;1.70;;;14.20;99.90;;;;;;5060613;28;20205;-38
2022/05/28 07:01:33;;;;;;;5.93;1.50;;;14.50;99.90;;;;;;5069485;28;20703;-38
2022/05/28 07:03:58;;;;;;;2.40;1.10;;;14.60;99.90;;;;;;5059272;28;20211;-38
2022/05/28 07:06:24;;;;;;;3.83;1.70;;;14.80;99.90;;;;;;5069306;28;20208;-38
2022/05/28 07:08:50;;;;;;;6.53;1.50;;;14.80;99.90;;;;;;5064457;28;20239;-38
2022/05/28 07:11:16;;;;;;;4.47;1.60;;;14.70;99.90;;;;;;5053591;28;20656;-38
2022/05/28 07:13:42;;;;;;;2.23;1.40;;;14.80;99.90;;;;;;5055984;28;20435;-38
2022/05/28 07:16:08;;;;;;;6.90;1.77;;;14.80;99.90;;;;;;5062362;28;20186;-38
2022/05/28 07:18:35;;;;;;;3.03;1.60;;;14.80;99.90;;;;;;5061918;28;20185;-38
2022/05/28 07:21:02;;;;;;;5.00;1.30;;;14.60;99.90;;;;;;5069049;28;20517;-38
2022/05/28 07:23:29;;;;;;;4.30;1.57;;;14.60;99.90;;;;;;5068031;28;20451;-38
2022/05/28 07:26:07;;;;;;;9.53;2.03;;;14.60;99.90;;;;;;5051774;28;20435;-38
2022/05/28 07:28:36;;;;;;;2.67;1.53;;;14.50;99.90;;;;;;5051965;28;20530;-38
2022/05/28 07:31:04;;;;;;;8.03;1.67;;;14.60;99.90;;;;;;5065103;28;20430;-38
2022/05/28 07:33:34;;;;;;;6.10;1.93;;;14.80;99.90;;;;;;5067327;28;20424;-38
2022/05/28 07:36:00;;;;;;;4.63;1.37;;;14.80;99.90;;;;;;5068572;28;20932;-38
2022/05/28 07:38:27;;;;;;;7.50;2.13;;;15.00;99.90;;;;;;5068280;28;21394;-38
2022/05/28 07:40:54;;;;;;;3.23;1.43;;;14.90;99.90;;;;;;5051776;28;20475;-38
2022/05/28 07:43:19;;;;;;;5.37;1.63;;;15.00;99.90;;;;;;5050293;28;20408;-37
2022/05/28 07:45:46;;;;;;;5.93;2.13;;;14.80;99.90;;;;;;5066026;28;20421;-38
2022/05/28 07:48:13;;;;;;;6.80;2.33;;;14.80;99.90;;;;;;5059930;28;20192;-37
2022/05/28 07:50:39;;;;;;;5.40;1.80;;;14.80;99.90;;;;;;5068511;28;20451;-38
2022/05/28 07:53:06;;;;;;;3.50;1.63;;;14.50;99.90;;;;;;5067482;28;20419;-38
2022/05/28 07:55:32;;;;;;;7.80;1.90;;;14.20;99.90;;;;;;5054829;28;20430;-38
2022/05/28 07:58:14;;;;;;;2.97;1.33;;;14.00;99.90;;;;;;5052309;28;20428;-38
2022/05/28 08:00:43;;;;;;;4.10;1.53;;;14.10;99.90;;;;;;5067479;28;20604;-38
2022/05/28 08:03:09;;;;;;;6.70;1.60;;;14.50;99.90;;;;;;5061718;28;20452;-38
2022/05/28 08:05:36;;;;;;;2.00;1.10;;;14.80;99.60;;;;;;5068626;28;20793;-38
2022/05/28 08:08:03;;;;;;;5.97;0.97;;;14.90;99.70;;;;;;5067899;28;20411;-38
2022/05/28 08:10:29;;;;;;;2.67;1.17;;;14.90;98.40;;;;;;5057049;28;20432;-38
2022/05/28 08:13:00;;;;;;;3.73;1.40;;;14.90;98.90;;;;;;5056202;28;20925;-38
2022/05/28 08:15:25;;;;;;;2.40;1.20;;;15.10;99.30;;;;;;5056490;28;20431;-38
2022/05/28 08:17:51;;;;;;;4.40;1.50;;;15.10;99.00;;;;;;5059371;28;20421;-38
2022/05/28 08:20:16;;;;;;;3.97;1.37;;;15.10;99.00;;;;;;5068549;28;20241;-38
2022/05/28 08:25:26;;;;;;;6.33;1.27;;;15.00;98.90;;;;;;5046500;28;20213;-38
2022/05/28 08:27:52;;;;;;;4.23;1.27;;;15.10;99.90;;;;;;5055078;28;20960;-38
2022/05/28 08:30:18;;;;;;;5.53;1.50;;;14.90;99.90;;;;;;5065254;28;20200;-38
2022/05/28 08:32:43;;;;;;;3.70;1.40;;;14.80;99.90;;;;;;5070383;28;20571;-39
2022/05/28 08:35:09;;;;;;;9.33;1.77;;;14.50;99.90;;;;;;5062397;28;20235;-38
2022/05/28 08:37:35;;;;;;;5.00;1.30;;;14.30;99.90;;;;;;5071548;28;20185;-38
2022/05/28 08:40:00;;;;;;;3.43;1.17;;;14.20;99.90;;;;;;5063417;28;20790;-38
2022/05/28 08:42:28;;;;;;;4.60;1.57;;;14.30;99.90;;;;;;5059699;28;20187;-38
2022/05/28 08:44:56;;;;;;;3.87;1.20;;;14.40;99.90;;;;;;5060782;28;20528;-38
2022/05/28 08:47:28;;;;;;;2.07;1.43;;;14.60;99.90;;;;;;5070028;28;20427;-38
2022/05/28 08:49:54;;;;;;;2.03;0.93;;;14.80;99.60;;;;;;5066626;28;20431;-39
2022/05/28 08:52:33;;;;;;;2.50;1.27;;;15.00;99.10;;;;;;5072083;28;20486;-38
2022/05/28 08:55:13;;;;;;;5.50;1.50;;;15.10;98.50;;;;;;5063399;28;20431;-38
2022/05/28 08:57:47;;;;;;;4.33;1.20;;;15.40;98.70;;;;;;5055808;28;20930;-38
2022/05/28 09:00:48;;;;;;;2.50;1.30;;;15.70;96.80;;;;;;5055292;28;20517;-38
2022/05/28 09:03:28;;;;;;;5.97;1.53;;;16.00;96.60;;;;;;5068201;28;20804;-38
2022/05/28 09:06:17;;;;;;;2.90;1.33;;;16.20;95.20;;;;;;5071590;28;20522;-38
2022/05/28 09:08:50;;;;;;;3.20;1.13;;;16.50;96.00;;;;;;5069678;28;20438;-38
2022/05/28 09:11:20;;;;;;;2.73;1.13;;;16.70;95.80;;;;;;5055764;28;20436;-38
2022/05/28 09:13:48;;;;;;;2.90;0.97;;;16.90;95.40;;;;;;5053564;28;20416;-38
2022/05/28 09:16:34;;;;;;;3.03;1.00;;;17.00;94.40;;;;;;5059019;28;20424;-39
2022/05/28 09:19:08;;;;;;;2.13;1.40;;;17.20;94.00;;;;;;5061326;28;20942;-38
2022/05/28 09:21:34;;;;;;;3.73;1.23;;;17.00;93.40;;;;;;5069344;28;20468;-38
2022/05/28 09:24:06;;;;;;;2.53;1.13;;;16.90;94.70;;;;;;5071223;28;20914;-38
2022/05/28 09:26:47;;;;;;;7.17;1.70;;;16.60;94.50;;;;;;5049912;28;20220;-38
2022/05/28 09:29:21;;;;;;;4.57;1.43;;;16.20;95.50;;;;;;5059231;28;20459;-38
2022/05/28 09:32:08;;;;;;;2.93;1.37;;;16.00;96.00;;;;;;5070621;28;20422;-39
2022/05/28 09:35:00;;;;;;;5.00;1.37;;;15.90;96.20;;;;;;5062002;28;20469;-38
2022/05/28 09:37:58;;;;;;;2.20;0.90;;;15.60;95.70;;;;;;5070300;28;20431;-38
2022/05/28 09:41:00;;;;;;;3.10;1.43;;;15.60;97.20;;;;;;5061752;28;20983;-38
2022/05/28 09:43:38;;;;;;;4.07;1.30;;;15.90;96.30;;;;;;5058663;28;21289;-38
2022/05/28 09:46:20;;;;;;;4.87;1.50;;;16.20;96.90;;;;;;5057323;28;20442;-38
2022/05/28 09:48:56;;;;;;;2.23;1.10;;;16.60;95.50;;;;;;5068539;28;20423;-38
2022/05/28 09:51:23;;;;;;;3.10;1.60;;;16.90;96.10;;;;;;5070609;28;20426;-38
2022/05/28 09:54:17;;;;;;;4.10;1.23;;;17.00;94.70;;;;;;5067909;28;20431;-38
2022/05/28 09:56:51;;;;;;;3.97;1.67;;;17.20;94.70;;;;;;5053112;28;20463;-39
2022/05/28 09:59:19;;;;;;;4.20;1.37;;;17.30;95.40;;;;;;5055587;28;20836;-39
2022/05/28 10:02:07;;;;;;;2.73;1.80;;;17.30;94.20;;;;;;5065658;28;20481;-39
2022/05/28 10:05:02;;;;;;;3.20;1.37;;;17.30;92.40;;;;;;5070443;28;20435;-39
2022/05/28 10:07:36;;;;;;;4.10;1.07;;;17.00;92.70;;;;;;5064634;28;20497;-38
2022/05/28 10:10:22;;;;;;;3.57;1.50;;;16.70;94.10;;;;;;5066795;28;20440;-38
2022/05/28 10:12:48;;;;;;;5.60;1.63;;;16.60;94.50;;;;;;5047664;28;20435;-38
2022/05/28 10:15:18;;;;;;;1.93;1.20;;;16.50;94.90;;;;;;5060098;28;20938;-38
2022/05/28 10:17:54;;;;;;;5.73;1.70;;;16.50;95.10;;;;;;5057208;28;20451;-39
2022/05/28 10:20:21;;;;;;;5.50;1.70;;;16.30;95.70;;;;;;5061129;28;20472;-39
2022/05/28 10:22:50;;;;;;;5.43;2.60;;;16.20;95.40;;;;;;5068496;28;20441;-38
2022/05/28 10:25:34;;;;;;;5.43;1.90;;;16.20;95.80;;;;;;5065240;28;20444;-38
2022/05/28 10:28:00;;;;;;;3.13;1.70;;;16.40;96.80;;;;;;5053795;28;20473;-38
2022/05/28 10:30:39;;;;;;;3.60;1.80;;;16.70;96.40;;;;;;5063280;28;20890;-38
2022/05/28 10:33:16;;;;;;;5.13;1.60;;;17.10;95.10;;;;;;5069539;28;20434;-39
2022/05/28 10:35:43;;;;;;;3.40;1.50;;;17.20;94.10;;;;;;5064307;28;20430;-39
2022/05/28 10:38:14;;;;;;;2.30;1.17;;;17.50;95.00;;;;;;5069197;28;20435;-39
2022/05/28 10:40:50;;;;;;;5.03;1.77;;;17.70;95.40;;;;;;5063247;28;20470;-38
2022/05/28 10:43:37;;;;;;;4.10;1.57;;;17.60;93.90;;;;;;5051401;28;20420;-38
2022/05/28 10:46:40;;;;;;;4.37;1.30;;;17.40;92.90;;;;;;5058925;28;20423;-38
2022/05/28 10:49:24;;;;;;;2.97;1.10;;;17.10;92.00;;;;;;5067842;28;20782;-39
2022/05/28 10:52:14;;;;;;;3.17;1.17;;;16.80;91.50;;;;;;5069458;28;20430;-39
2022/05/28 10:54:46;;;;;;;3.23;1.57;;;16.70;93.10;;;;;;5067322;28;20918;-38
2022/05/28 10:57:59;;;;;;;5.77;1.60;;;16.40;93.90;;;;;;5053356;28;20463;-38
2022/05/28 11:00:45;;;;;;;5.27;1.50;;;16.40;94.60;;;;;;5049319;28;20479;-38
2022/05/28 11:03:40;;;;;;;4.13;1.30;;;16.40;95.60;;;;;;5069488;28;20620;-38
2022/05/28 11:06:31;;;;;;;6.27;1.17;;;16.40;96.80;;;;;;5054894;28;20439;-38
2022/05/28 11:09:08;;;;;;;3.23;1.47;;;16.50;95.90;;;;;;5069243;28;20506;-38
2022/05/28 11:11:49;;;;;;;4.00;1.50;;;16.60;95.40;;;;;;5057981;28;20440;-39
2022/05/28 11:14:47;;;;;;;3.23;1.63;;;16.50;96.10;;;;;;5055416;28;21056;-38
2022/05/28 11:17:37;;;;;;;5.30;1.97;;;16.70;97.20;;;;;;5053136;28;20514;-38
2022/05/28 11:20:30;;;;;;;3.10;1.40;;;16.90;96.80;;;;;;5062408;28;20509;-39
2022/05/28 11:23:06;;;;;;;4.27;1.40;;;17.20;95.90;;;;;;5069145;28;20909;-39
2022/05/28 11:25:55;;;;;;;5.07;1.60;;;17.50;96.10;;;;;;5065782;28;20423;-39
2022/05/28 11:28:32;;;;;;;1.93;1.20;;;17.40;95.10;;;;;;5052442;28;20415;-39
2022/05/28 11:31:12;;;;;;;3.13;1.30;;;17.50;96.10;;;;;;5052491;28;20447;-39
2022/05/28 11:33:41;;;;;;;4.10;1.17;;;17.60;94.90;;;;;;5068996;28;20434;-38
2022/05/28 11:36:17;;;;;;;2.80;1.13;;;17.70;94.10;;;;;;5065806;28;20428;-38
2022/05/28 11:39:02;;;;;;;3.70;1.10;;;17.80;93.00;;;;;;5068581;28;20560;-38
2022/05/28 11:41:34;;;;;;;8.03;1.47;;;17.90;95.30;;;;;;5058248;28;20799;-39
2022/05/28 11:44:41;;;;;;;3.40;1.40;;;18.10;94.50;;;;;;5052984;28;20507;-39
2022/05/28 11:47:18;;;;;;;5.13;1.33;;;18.20;94.70;;;;;;5042518;28;20918;-38
2022/05/28 11:52:46;;;;;;;2.43;1.30;;;17.90;92.90;;;;;;5068751;28;21117;-38
2022/05/28 11:55:21;;;;;;;4.30;1.50;;;17.80;93.70;;;;;;5068064;28;20411;-39
2022/05/28 11:57:50;;;;;;;3.10;1.40;;;17.70;93.50;;;;;;5057168;28;20446;-39
2022/05/28 12:00:18;;;;;;;3.73;1.40;;;17.70;92.70;;;;;;5054656;28;20455;-39
2022/05/28 12:02:53;;;;;;;3.70;1.60;;;17.70;92.50;;;;;;5072685;28;20423;-38
2022/05/28 12:05:24;;;;;;;6.13;1.53;;;18.00;94.90;;;;;;5066765;28;20813;-39
2022/05/28 12:08:05;;;;;;;2.10;1.10;;;18.00;90.10;;;;;;5072060;28;20419;-38
2022/05/28 12:10:45;;;;;;;3.10;1.50;;;17.70;90.50;;;;;;5072569;28;20427;-38
2022/05/28 12:13:11;;;;;;;3.47;1.70;;;17.70;92.00;;;;;;5054775;28;20427;-39
2022/05/28 12:15:38;;;;;;;3.30;1.50;;;17.70;91.80;;;;;;5055601;28;20432;-39
2022/05/28 12:18:23;;;;;;;8.00;1.83;;;17.70;92.80;;;;;;5068113;28;20841;-38
2022/05/28 12:20:59;;;;;;;5.30;1.63;;;17.80;93.10;;;;;;5069726;28;20975;-39
2022/05/28 12:23:37;;;;;;;4.83;1.40;;;17.90;93.80;;;;;;5072218;28;20423;-39
2022/05/28 12:26:47;;;;;;;3.47;1.67;;;17.80;92.00;;;;;;5068231;28;21169;-39
2022/05/28 12:29:38;;;;;;;3.37;1.60;;;17.80;92.60;;;;;;5057077;28;20500;-39
2022/05/28 12:32:40;;;;;;;3.90;1.50;;;17.70;91.50;;;;;;5060522;28;20431;-38
2022/05/28 12:35:15;;;;;;;5.00;1.83;;;17.70;91.30;;;;;;5065276;28;20973;-38
2022/05/28 12:37:50;;;;;;;5.80;2.00;;;17.70;92.00;;;;;;5069374;28;20483;-39
2022/05/28 12:40:43;;;;;;;4.27;1.40;;;17.80;93.40;;;;;;5071638;28;20458;-38
2022/05/28 12:43:28;;;;;;;5.20;1.67;;;18.10;92.70;;;;;;5054251;28;20846;-39
2022/05/28 12:45:55;;;;;;;5.37;1.93;;;18.30;92.30;;;;;;5061240;28;20518;-38
2022/05/28 12:48:26;;;;;;;4.50;1.80;;;18.50;92.10;;;;;;5071286;28;20457;-38
2022/05/28 12:51:30;;;;;;;4.60;1.70;;;18.50;90.30;;;;;;5065730;28;20441;-38
2022/05/28 12:54:01;;;;;;;2.90;1.60;;;18.60;92.20;;;;;;5058011;28;20437;-39
2022/05/28 12:56:33;;;;;;;3.90;1.60;;;18.90;91.60;;;;;;5066438;28;20452;-39
2022/05/28 12:59:31;;;;;;;5.60;2.40;;;19.10;90.80;;;;;;5054949;28;20442;-38
2022/05/28 13:02:22;;;;;;;3.60;1.87;;;19.20;90.40;;;;;;5056280;28;20455;-39
2022/05/28 13:04:58;;;;;;;5.30;1.67;;;19.10;88.90;;;;;;5066254;28;20442;-39
2022/05/28 13:07:32;;;;;;;1.93;1.50;;;18.90;88.90;;;;;;5070774;28;20906;-38
2022/05/28 13:10:25;;;;;;;2.50;1.10;;;18.70;84.70;;;;;;5071706;28;20437;-40
2022/05/28 13:12:52;;;;;;;2.43;1.40;;;18.60;81.70;;;;;;5055958;28;21087;-38
2022/05/28 13:15:35;;;;;;;4.17;1.30;;;18.70;77.80;;;;;;5061035;28;20431;-39